Ana Sayfa
METAR-TAF:

METAR-TAF

Havaalanları :

Brownwood, Teksas, Amerika Birleşik Devletleri

Enlem: 31-48N, Boylam: 098-57W, yükseklik: 422 m

Güncel hava durumu gözlemi

Rapor saat 21:35 UTC de 18 dakika önce yapıldı.
Rüzgar güneydan 10 kt ve 20 kt'a kadar ani rüzgarlar
Sıcaklık 19°C
Nem 22%
Basınç 1018 hPa
Görüş mesafesi: 16.1 km
Açık gökyüzü

METAR: KBWD 162135Z AUTO 17010G20KT 10SM CLR 19/M03 A3007 RMK AO1

Saat: 15:53 (21:53 UTC)


TAF: eksik

4.000'den fazla havaalanı için hava durumu gözlemleri ve tahminleri (METAR ve TAF raporları).

Kullanılabilir istasyonlar harita üzerinde sarı ve kırmızı noktalarla gösterilir.

İstasyonun adını görmek için fareyi noktanın üzerinde gezdirin.

Sonrasında hava gözlem ve tahminlerini görmek için tıklayın.

Haritayı değiştirmek için: yaklaştırmak için siyah artı işaretli yeşil düğmeye ve uzaklaştırmak için de eksi işaretli düğmeye hızla tıklayın; bitişik haritalar için yeşil okları kullanın.


METAR-TAF: